createdAt,value
2023-04-05T00:00:16.736Z,99.5
2023-04-05T00:02:28.858Z,99.5
2023-04-05T00:03:35.170Z,99.5
2023-04-05T00:04:40.259Z,99.5
2023-04-05T00:05:46.451Z,99.5
2023-04-05T00:06:52.457Z,99.5
2023-04-05T00:09:04.955Z,99.5
2023-04-05T00:10:10.991Z,99.5
2023-04-05T00:12:23.174Z,99.5
2023-04-05T00:13:29.520Z,99.5
2023-04-05T00:14:35.604Z,99.5
2023-04-05T00:16:47.830Z,99.5
2023-04-05T00:17:53.885Z,99.5
2023-04-05T00:18:59.073Z,99.5
2023-04-05T00:21:11.451Z,99.5
2023-04-05T00:22:17.479Z,99.5
2023-04-05T00:23:23.650Z,99.5
2023-04-05T00:24:29.934Z,99.5
2023-04-05T00:25:35.995Z,99.5
2023-04-05T00:27:48.283Z,99.5
2023-04-05T00:28:54.525Z,99.5
2023-04-05T00:30:00.582Z,99.5
2023-04-05T00:31:06.754Z,99.5
2023-04-05T00:33:19.105Z,99.5
2023-04-05T00:34:24.187Z,99.5
2023-04-05T00:35:30.336Z,99.5
2023-04-05T00:36:36.510Z,99.5
2023-04-05T00:37:42.563Z,99.5
2023-04-05T00:38:48.850Z,99.5
2023-04-05T00:39:54.951Z,99.5
2023-04-05T00:41:01.035Z,99.5
2023-04-05T00:42:07.077Z,99.5
2023-04-05T00:43:13.416Z,99.5
2023-04-05T00:44:19.371Z,99.5
2023-04-05T00:45:25.510Z,99.5
2023-04-05T00:46:31.883Z,99.5
2023-04-05T00:47:37.816Z,99.5
2023-04-05T00:50:55.439Z,99.5
2023-04-05T00:52:01.404Z,99.5
2023-04-05T00:53:07.601Z,99.5
2023-04-05T00:54:13.723Z,99.5
2023-04-05T00:55:19.969Z,99.5
2023-04-05T00:56:26.123Z,99.5
2023-04-05T00:57:32.276Z,99.5
2023-04-05T00:58:38.259Z,99.5
2023-04-05T00:59:44.532Z,99.5
2023-04-05T01:00:50.531Z,99.5
2023-04-05T01:01:56.823Z,99.5
2023-04-05T01:03:02.093Z,99.5
2023-04-05T01:04:08.124Z,99.5
2023-04-05T01:06:20.426Z,99.5
2023-04-05T01:07:26.596Z,99.5
2023-04-05T01:08:32.577Z,99.5
2023-04-05T01:09:38.835Z,99.5
2023-04-05T01:10:44.907Z,99.5
2023-04-05T01:11:51.173Z,99.5
2023-04-05T01:12:57.316Z,99.5
2023-04-05T01:15:08.457Z,99.5
2023-04-05T01:17:19.785Z,99.5
2023-04-05T01:18:26.047Z,99.5
2023-04-05T01:19:32.208Z,99.5
2023-04-05T01:22:50.583Z,99.5
2023-04-05T01:23:56.818Z,99.5
2023-04-05T01:25:03.004Z,99.5
2023-04-05T01:26:09.062Z,99.5
2023-04-05T01:27:15.278Z,99.5
2023-04-05T01:28:21.336Z,99.5
2023-04-05T01:30:33.589Z,99.5
2023-04-05T01:33:51.095Z,99.5
2023-04-05T01:34:57.125Z,99.5
2023-04-05T01:36:03.273Z,99.5
2023-04-05T01:37:09.465Z,99.5
2023-04-05T01:39:21.813Z,99.5
2023-04-05T01:41:34.032Z,99.5
2023-04-05T01:42:40.237Z,99.5
2023-04-05T01:43:46.229Z,99.5
2023-04-05T01:44:52.507Z,99.5
2023-04-05T01:45:57.753Z,99.5
2023-04-05T01:47:02.844Z,99.5
2023-04-05T01:48:08.901Z,99.5
2023-04-05T01:49:15.114Z,99.5
2023-04-05T01:50:21.237Z,99.5
2023-04-05T01:51:27.418Z,99.5
2023-04-05T01:52:33.416Z,99.5
2023-04-05T01:53:39.595Z,99.5
2023-04-05T01:55:52.026Z,99.5
2023-04-05T01:56:57.993Z,99.5
2023-04-05T01:58:04.375Z,99.5
2023-04-05T01:59:10.413Z,99.5
2023-04-05T02:01:22.722Z,99.5
2023-04-05T02:02:27.794Z,99.5
2023-04-05T02:03:33.981Z,99.5
2023-04-05T02:04:40.021Z,99.5
2023-04-05T02:06:52.428Z,99.5
2023-04-05T02:07:58.586Z,99.5
2023-04-05T02:09:04.670Z,99.5
2023-04-05T02:12:23.076Z,99.5
2023-04-05T02:13:29.170Z,99.5
2023-04-05T02:14:35.308Z,99.5
2023-04-05T02:15:41.453Z,99.5
2023-04-05T02:17:52.787Z,99.5
2023-04-05T02:18:58.991Z,99.5
2023-04-05T02:20:05.190Z,99.5
2023-04-05T02:21:11.250Z,99.5
2023-04-05T02:22:17.529Z,99.5
2023-04-05T02:23:23.622Z,99.5
2023-04-05T02:24:29.892Z,99.5
2023-04-05T02:25:35.891Z,99.5
2023-04-05T02:28:54.297Z,99.5
2023-04-05T02:30:00.541Z,99.5
2023-04-05T02:31:06.667Z,99.5
2023-04-05T02:33:17.908Z,99.5
2023-04-05T02:34:24.213Z,99.5
2023-04-05T02:35:30.312Z,99.5
2023-04-05T02:36:36.473Z,99.5
2023-04-05T02:37:42.522Z,99.5
2023-04-05T02:38:48.630Z,99.5
2023-04-05T02:39:54.958Z,99.5
2023-04-05T02:41:00.939Z,99.5
2023-04-05T02:42:07.050Z,99.5
2023-04-05T02:43:13.196Z,99.5
2023-04-05T02:45:25.513Z,99.5
2023-04-05T02:46:30.715Z,99.5
2023-04-05T02:47:36.840Z,99.5
2023-04-05T02:48:42.967Z,99.5
2023-04-05T02:49:49.085Z,99.5
2023-04-05T02:50:55.224Z,99.5
2023-04-05T02:52:01.357Z,99.5
2023-04-05T02:53:07.510Z,99.5
2023-04-05T02:54:13.694Z,99.5
2023-04-05T02:55:19.921Z,99.5
2023-04-05T02:56:25.132Z,99.5
2023-04-05T02:57:30.258Z,99.5
2023-04-05T02:59:42.594Z,99.5
2023-04-05T03:01:54.921Z,99.5
2023-04-05T03:03:00.963Z,99.5
2023-04-05T03:04:07.183Z,99.5
2023-04-05T03:05:13.261Z,99.5
2023-04-05T03:07:25.542Z,99.5
2023-04-05T03:08:31.745Z,99.5
2023-04-05T03:10:43.977Z,99.5
2023-04-05T03:11:49.132Z,99.5
2023-04-05T03:12:54.314Z,99.5
2023-04-05T03:13:59.473Z,99.5
2023-04-05T03:15:05.602Z,99.5
2023-04-05T03:18:24.043Z,99.5
2023-04-05T03:19:30.213Z,99.5
2023-04-05T03:20:36.363Z,99.5
2023-04-05T03:21:42.474Z,99.5
2023-04-05T03:22:48.614Z,99.5
2023-04-05T03:23:54.821Z,99.5
2023-04-05T03:26:07.169Z,99.5
2023-04-05T03:27:13.244Z,99.5
2023-04-05T03:29:24.529Z,99.5
2023-04-05T03:30:30.652Z,99.5
2023-04-05T03:32:42.999Z,99.5
2023-04-05T03:34:55.210Z,99.5
2023-04-05T03:36:01.470Z,99.5
2023-04-05T03:37:07.504Z,99.5
2023-04-05T03:38:13.639Z,99.5
2023-04-05T03:39:19.788Z,99.5
2023-04-05T03:40:26.005Z,99.5
2023-04-05T03:41:32.105Z,99.5
2023-04-05T03:42:37.250Z,99.5
2023-04-05T03:43:43.392Z,99.5
2023-04-05T03:44:49.537Z,99.5
2023-04-05T03:47:01.867Z,99.5
2023-04-05T03:48:08.028Z,99.5
2023-04-05T03:49:14.132Z,99.5
2023-04-05T03:52:32.534Z,99.5
2023-04-05T03:53:38.669Z,99.5
2023-04-05T03:54:44.814Z,99.5
2023-04-05T03:56:57.113Z,99.5
2023-04-05T03:58:02.270Z,99.5
2023-04-05T03:59:08.414Z,99.5
2023-04-05T04:00:14.584Z,99.5
2023-04-05T04:01:20.694Z,99.5
2023-04-05T04:02:26.831Z,99.5
2023-04-05T04:04:39.135Z,99.5
2023-04-05T04:10:09.849Z,99.5
2023-04-05T04:11:16.021Z,99.5
2023-04-05T04:12:21.147Z,99.5
2023-04-05T04:13:27.319Z,99.5
2023-04-05T04:14:33.478Z,99.5
2023-04-05T04:15:39.578Z,99.5
2023-04-05T04:16:45.858Z,99.5
2023-04-05T04:17:51.880Z,99.5
2023-04-05T04:18:58.090Z,99.5
2023-04-05T04:20:04.169Z,99.5
2023-04-05T04:21:10.311Z,99.5
2023-04-05T04:24:28.729Z,99.5
2023-04-05T04:26:41.046Z,99.5
2023-04-05T04:27:47.168Z,99.5
2023-04-05T04:29:59.570Z,99.5
2023-04-05T04:31:05.747Z,99.5
2023-04-05T04:32:11.866Z,99.5
2023-04-05T04:33:18.000Z,99.5
2023-04-05T04:34:24.155Z,99.5
2023-04-05T04:35:30.405Z,99.5
2023-04-05T04:36:36.446Z,99.5
2023-04-05T04:38:48.790Z,99.5
2023-04-05T04:41:01.012Z,99.5
2023-04-05T04:42:07.316Z,99.5
2023-04-05T04:43:12.443Z,99.5
2023-04-05T04:44:18.656Z,99.5
2023-04-05T04:46:30.976Z,99.5
2023-04-05T04:47:37.089Z,99.5
2023-04-05T04:48:43.175Z,99.5
2023-04-05T04:49:49.393Z,99.5
2023-04-05T04:50:55.474Z,99.5
2023-04-05T04:52:01.609Z,99.5
2023-04-05T04:53:07.743Z,99.5
2023-04-05T04:54:13.933Z,99.5
2023-04-05T04:55:20.041Z,99.5
2023-04-05T04:58:38.519Z,99.5
2023-04-05T04:59:43.685Z,99.5
2023-04-05T05:00:49.934Z,99.5
2023-04-05T05:01:55.924Z,99.5
2023-04-05T05:03:02.080Z,99.5
2023-04-05T05:04:08.221Z,99.5
2023-04-05T05:05:14.367Z,99.5
2023-04-05T05:06:20.489Z,99.5
2023-04-05T05:08:32.779Z,99.5
2023-04-05T05:09:38.990Z,99.5
2023-04-05T05:11:51.332Z,99.5
2023-04-05T05:14:03.534Z,99.5
2023-04-05T05:15:08.738Z,99.5
2023-04-05T05:16:14.924Z,99.5
2023-04-05T05:18:27.099Z,99.5
2023-04-05T05:19:33.249Z,99.5
2023-04-05T05:21:45.527Z,99.5
2023-04-05T05:22:51.684Z,99.5
2023-04-05T05:25:03.954Z,99.5
2023-04-05T05:26:10.098Z,99.5
2023-04-05T05:27:16.244Z,99.5
2023-04-05T05:28:21.420Z,99.5
2023-04-05T05:30:33.801Z,99.5
2023-04-05T05:31:39.862Z,99.5
2023-04-05T05:32:46.045Z,99.5
2023-04-05T05:33:52.154Z,99.5
2023-04-05T05:34:58.283Z,99.5
2023-04-05T05:36:04.419Z,99.5
2023-04-05T05:37:10.561Z,99.5
2023-04-05T05:39:22.838Z,99.5
2023-04-05T05:40:29.111Z,99.5
2023-04-05T05:41:35.208Z,99.5
2023-04-05T05:42:40.338Z,99.5
2023-04-05T05:43:46.605Z,99.5
2023-04-05T05:47:04.902Z,99.5
2023-04-05T05:48:11.031Z,99.5
2023-04-05T05:49:17.159Z,99.5
2023-04-05T05:50:23.311Z,99.5
2023-04-05T05:51:29.447Z,99.5
2023-04-05T05:52:35.591Z,99.5
2023-04-05T05:53:41.744Z,99.5
2023-04-05T05:54:47.885Z,99.5
2023-04-05T05:55:54.022Z,99.5
2023-04-05T05:56:59.285Z,99.5
2023-04-05T05:58:05.347Z,99.5
2023-04-05T05:59:11.470Z,99.5
2023-04-05T06:00:17.699Z,99.5
2023-04-05T06:01:23.762Z,99.5
2023-04-05T06:03:36.062Z,99.5
2023-04-05T06:04:42.209Z,99.5
2023-04-05T06:05:48.432Z,99.5
2023-04-05T06:06:54.473Z,99.5
2023-04-05T06:08:00.635Z,99.5
2023-04-05T06:09:06.755Z,99.5
2023-04-05T06:10:11.952Z,99.5
2023-04-05T06:11:18.213Z,99.5
2023-04-05T06:12:23.293Z,99.5
2023-04-05T06:13:29.424Z,99.5
2023-04-05T06:15:41.690Z,99.5
2023-04-05T06:16:47.824Z,99.5
2023-04-05T06:17:54.015Z,99.5
2023-04-05T06:20:06.249Z,99.5
2023-04-05T06:26:43.135Z,99.5
2023-04-05T06:27:48.276Z,99.5
2023-04-05T06:28:54.453Z,99.5
2023-04-05T06:29:59.580Z,99.5
2023-04-05T06:32:10.910Z,99.5
2023-04-05T06:33:17.062Z,99.5
2023-04-05T06:34:23.175Z,99.5
2023-04-05T06:36:35.530Z,99.5
2023-04-05T06:38:47.762Z,99.5
2023-04-05T06:39:53.891Z,99.5
2023-04-05T06:41:00.071Z,99.5
2023-04-05T06:42:06.182Z,99.5
2023-04-05T06:43:12.423Z,99.5
2023-04-05T06:44:18.469Z,99.5
2023-04-05T06:45:23.646Z,99.5
2023-04-05T06:46:29.781Z,99.5
2023-04-05T06:47:35.917Z,99.5
2023-04-05T06:48:42.066Z,99.5
2023-04-05T06:50:54.348Z,99.5
2023-04-05T06:53:06.722Z,99.5
2023-04-05T06:55:18.935Z,99.5
2023-04-05T06:56:25.061Z,99.5
2023-04-05T06:57:31.257Z,99.5
2023-04-05T06:58:37.367Z,99.5
2023-04-05T06:59:43.706Z,99.5
2023-04-05T07:00:49.766Z,99.5
2023-04-05T07:01:55.978Z,99.5
2023-04-05T07:03:02.051Z,99.5
2023-04-05T07:04:08.187Z,99.5
2023-04-05T07:05:14.328Z,99.5
2023-04-05T07:06:20.477Z,99.5
2023-04-05T07:07:26.633Z,99.5
2023-04-05T07:09:38.907Z,99.5
2023-04-05T07:10:45.204Z,99.5
2023-04-05T07:11:51.224Z,99.5
2023-04-05T07:12:57.352Z,99.5
2023-04-05T07:15:08.758Z,99.5
2023-04-05T07:16:14.888Z,99.5
2023-04-05T07:17:20.953Z,99.5
2023-04-05T07:18:27.076Z,99.5
2023-04-05T07:19:33.255Z,99.5
2023-04-05T07:20:39.368Z,99.5
2023-04-05T07:21:45.507Z,99.5
2023-04-05T07:22:51.766Z,99.5
2023-04-05T07:23:57.876Z,99.5
2023-04-05T07:26:10.189Z,99.5
2023-04-05T07:27:16.226Z,99.5
2023-04-05T07:28:21.394Z,99.5
2023-04-05T07:29:27.540Z,99.5
2023-04-05T07:30:33.786Z,99.5
2023-04-05T07:31:39.890Z,99.5
2023-04-05T07:32:45.980Z,99.5
2023-04-05T07:33:52.191Z,99.5
2023-04-05T07:34:58.340Z,99.5
2023-04-05T07:37:10.624Z,99.5
2023-04-05T07:38:16.679Z,99.5
2023-04-05T07:39:22.822Z,99.5
2023-04-05T07:40:29.029Z,99.5
2023-04-05T07:42:41.251Z,99.5
2023-04-05T07:43:47.469Z,99.5
2023-04-05T07:44:52.570Z,99.5
2023-04-05T07:45:58.745Z,99.5
2023-04-05T07:48:10.986Z,99.5
2023-04-05T07:49:17.137Z,99.5
2023-04-05T07:50:23.276Z,99.5
2023-04-05T07:51:29.474Z,99.5
2023-04-05T07:53:41.744Z,99.5
2023-04-05T07:55:54.028Z,99.5
2023-04-05T07:57:00.123Z,99.5
2023-04-05T07:59:12.413Z,99.5
2023-04-05T08:00:17.586Z,99.5
2023-04-05T08:02:29.905Z,99.5
2023-04-05T08:04:42.146Z,99.5
2023-04-05T08:05:48.406Z,99.5
2023-04-05T08:06:54.445Z,99.5
2023-04-05T08:08:00.647Z,99.5
2023-04-05T08:10:12.873Z,99.5
2023-04-05T08:11:19.012Z,99.5
2023-04-05T08:12:25.228Z,99.5
2023-04-05T08:13:31.304Z,99.5
2023-04-05T08:15:42.610Z,99.5
2023-04-05T08:16:48.822Z,99.5
2023-04-05T08:17:54.885Z,99.5
2023-04-05T08:20:07.178Z,99.5
2023-04-05T08:21:13.316Z,99.5
2023-04-05T08:22:19.531Z,99.5
2023-04-05T08:23:25.636Z,99.5
2023-04-05T08:24:32.000Z,99.5
2023-04-05T08:25:37.900Z,99.5
2023-04-05T08:26:44.059Z,99.5
2023-04-05T08:27:50.280Z,99.5
2023-04-05T08:28:56.467Z,99.5
2023-04-05T08:30:02.583Z,99.5
2023-04-05T08:32:14.866Z,99.5
2023-04-05T08:33:21.076Z,99.5
2023-04-05T08:34:27.474Z,99.5
2023-04-05T08:35:33.299Z,99.5
2023-04-05T08:36:39.495Z,99.5
2023-04-05T08:37:45.745Z,99.5
2023-04-05T08:38:51.722Z,99.5
2023-04-05T08:39:58.183Z,98
2023-04-05T08:41:04.066Z,99.5
2023-04-05T08:42:10.232Z,97.5
2023-04-05T08:43:15.347Z,96.5
2023-04-05T08:45:27.643Z,92
2023-04-05T08:46:32.772Z,93
2023-04-05T08:48:45.060Z,94
2023-04-05T08:49:51.206Z,91.5
2023-04-05T08:52:03.903Z,95.5
2023-04-05T08:53:09.887Z,93.5
2023-04-05T08:54:15.834Z,92.5
2023-04-05T08:56:28.190Z,94
2023-04-05T08:57:34.208Z,91.5
2023-04-05T08:58:40.527Z,95.5
2023-04-05T08:59:45.517Z,97.5
2023-04-05T09:00:50.754Z,96.5
2023-04-05T09:01:56.828Z,93.5
2023-04-05T09:03:03.254Z,89
2023-04-05T09:05:15.399Z,86
2023-04-05T09:06:21.406Z,86.5
2023-04-05T09:07:27.572Z,86
2023-04-05T09:08:33.775Z,85
2023-04-05T09:09:39.826Z,85
2023-04-05T09:10:45.004Z,87
2023-04-05T09:11:51.268Z,86
2023-04-05T09:12:57.334Z,86
2023-04-05T09:14:03.434Z,86.5
2023-04-05T09:15:09.574Z,86.5
2023-04-05T09:16:15.809Z,83.5
2023-04-05T09:17:21.920Z,84.5
2023-04-05T09:18:28.059Z,84.5
2023-04-05T09:19:34.154Z,84
2023-04-05T09:25:04.866Z,76.5
2023-04-05T09:26:10.050Z,75
2023-04-05T09:27:16.253Z,78
2023-04-05T09:28:22.293Z,79
2023-04-05T09:29:28.442Z,76.5
2023-04-05T09:30:34.676Z,75
2023-04-05T09:31:40.726Z,76
2023-04-05T09:32:46.971Z,74
2023-04-05T09:33:53.002Z,72
2023-04-05T09:34:59.231Z,71.5
2023-04-05T09:36:05.302Z,72
2023-04-05T09:38:17.637Z,76.5
2023-04-05T09:39:23.789Z,77.5
2023-04-05T09:40:28.928Z,78
2023-04-05T09:41:35.038Z,75
2023-04-05T09:42:41.171Z,72.5
2023-04-05T09:43:47.313Z,74.5
2023-04-05T09:44:53.499Z,69
2023-04-05T09:45:59.611Z,68
2023-04-05T09:47:05.756Z,66.5
2023-04-05T09:49:17.061Z,68.5
2023-04-05T09:50:22.214Z,71
2023-04-05T09:51:28.348Z,68
2023-04-05T09:52:34.497Z,68
2023-04-05T09:54:46.781Z,68
2023-04-05T09:55:52.947Z,69.5
2023-04-05T09:56:59.079Z,70.5
2023-04-05T09:59:11.387Z,65
2023-04-05T10:00:17.503Z,63
2023-04-05T10:01:23.632Z,64
2023-04-05T10:02:29.787Z,72.5
2023-04-05T10:03:36.049Z,70
2023-04-05T10:04:41.274Z,69.5
2023-04-05T10:05:47.296Z,71
2023-04-05T10:06:53.363Z,66.5
2023-04-05T10:07:59.555Z,67.5
2023-04-05T10:09:05.664Z,62
2023-04-05T10:11:18.018Z,71.5
2023-04-05T10:12:24.186Z,70
2023-04-05T10:13:30.230Z,66.5
2023-04-05T10:14:36.366Z,65.5
2023-04-05T10:15:42.536Z,65.5
2023-04-05T10:16:48.682Z,62
2023-04-05T10:17:54.802Z,61.5
2023-04-05T10:19:00.004Z,61.5
2023-04-05T10:21:12.379Z,69
2023-04-05T10:22:18.461Z,66
2023-04-05T10:23:24.560Z,64.5
2023-04-05T10:24:30.702Z,62
2023-04-05T10:25:36.817Z,64.5
2023-04-05T10:27:49.313Z,66.5
2023-04-05T10:28:55.460Z,58.5
2023-04-05T10:30:01.427Z,59
2023-04-05T10:31:07.641Z,60.5
2023-04-05T10:32:13.744Z,59.5
2023-04-05T10:33:18.873Z,57.5
2023-04-05T10:34:25.056Z,62
2023-04-05T10:36:37.359Z,57.5
2023-04-05T10:37:43.412Z,55
2023-04-05T10:38:49.559Z,55.5
2023-04-05T10:39:55.761Z,53
2023-04-05T10:41:02.023Z,54
2023-04-05T10:42:08.019Z,57.5
2023-04-05T10:44:20.275Z,53.5
2023-04-05T10:45:26.403Z,56
2023-04-05T10:46:32.631Z,53.5
2023-04-05T10:47:38.851Z,56.5
2023-04-05T10:48:44.983Z,58
2023-04-05T10:49:51.144Z,54.5
2023-04-05T10:50:57.391Z,55
2023-04-05T10:52:03.439Z,62
2023-04-05T10:53:09.557Z,62.5
2023-04-05T10:54:15.686Z,59.5
2023-04-05T10:55:21.868Z,58
2023-04-05T10:56:27.979Z,56
2023-04-05T10:57:34.113Z,56
2023-04-05T10:58:40.260Z,55
2023-04-05T11:00:51.564Z,53.5
2023-04-05T11:01:56.735Z,55.5
2023-04-05T11:03:02.960Z,51.5
2023-04-05T11:04:09.014Z,55
2023-04-05T11:05:15.178Z,52.5
2023-04-05T11:06:21.300Z,54
2023-04-05T11:07:26.514Z,55.5
2023-04-05T11:08:31.629Z,54.5
2023-04-05T11:09:37.774Z,56.5
2023-04-05T11:10:43.935Z,53
2023-04-05T11:11:50.066Z,55.5
2023-04-05T11:12:56.210Z,55
2023-04-05T11:15:08.497Z,56
2023-04-05T11:17:20.769Z,54.5
2023-04-05T11:18:26.956Z,53
2023-04-05T11:19:33.061Z,57.5
2023-04-05T11:20:39.223Z,52
2023-04-05T11:21:44.429Z,54
2023-04-05T11:22:49.538Z,53
2023-04-05T11:23:55.679Z,49.5
2023-04-05T11:25:01.902Z,52.5
2023-04-05T11:26:08.007Z,53.5
2023-04-05T11:27:14.110Z,53.5
2023-04-05T11:28:20.247Z,48
2023-04-05T11:29:26.402Z,49
2023-04-05T11:31:38.708Z,50.5
2023-04-05T11:33:50.969Z,53.5
2023-04-05T11:34:57.106Z,52
2023-04-05T11:36:03.266Z,50.5
2023-04-05T11:37:08.418Z,52.5
2023-04-05T11:38:14.563Z,55
2023-04-05T11:39:20.760Z,51
2023-04-05T11:40:26.882Z,51.5
2023-04-05T11:41:33.043Z,50
2023-04-05T11:42:39.140Z,59
2023-04-05T11:43:45.314Z,51
2023-04-05T11:44:51.567Z,50.5
2023-04-05T11:45:57.563Z,54.5
2023-04-05T11:47:03.739Z,53.5
2023-04-05T11:48:09.858Z,58
2023-04-05T11:50:22.140Z,57.5
2023-04-05T11:51:28.293Z,57.5
2023-04-05T11:52:33.441Z,58.5
2023-04-05T11:53:39.606Z,58
2023-04-05T11:54:45.747Z,56
2023-04-05T11:55:51.889Z,59
2023-04-05T11:56:57.036Z,58
2023-04-05T11:58:03.185Z,61
2023-04-05T11:59:08.344Z,64
2023-04-05T12:00:14.490Z,66.5
2023-04-05T12:01:20.627Z,73
2023-04-05T12:02:26.768Z,75.5
2023-04-05T12:03:32.967Z,70
2023-04-05T12:04:39.061Z,76.5
2023-04-05T12:06:51.357Z,70
2023-04-05T12:07:57.491Z,67
2023-04-05T12:09:03.621Z,68
2023-04-05T12:10:09.770Z,70.5
2023-04-05T12:11:15.934Z,71
2023-04-05T12:12:22.066Z,73
2023-04-05T12:13:27.213Z,69.5
2023-04-05T12:14:33.354Z,70.5
2023-04-05T12:15:39.580Z,70.5
2023-04-05T12:16:45.644Z,79.5
2023-04-05T12:17:51.806Z,71.5
2023-04-05T12:18:57.957Z,72
2023-04-05T12:21:10.281Z,69.5
2023-04-05T12:23:22.503Z,74
2023-04-05T12:24:27.694Z,74
2023-04-05T12:25:32.908Z,71.5
2023-04-05T12:26:39.114Z,76.5
2023-04-05T12:27:45.141Z,74
2023-04-05T12:28:51.330Z,70.5
2023-04-05T12:29:57.392Z,72
2023-04-05T12:32:09.693Z,82.5
2023-04-05T12:33:15.858Z,79
2023-04-05T12:34:21.975Z,74.5
2023-04-05T12:35:28.123Z,75.5
2023-04-05T12:36:34.263Z,75
2023-04-05T12:37:40.403Z,76
2023-04-05T12:39:52.686Z,73
2023-04-05T12:40:57.848Z,76.5
2023-04-05T12:42:04.017Z,76
2023-04-05T12:43:10.180Z,76.5
2023-04-05T12:44:16.365Z,74
2023-04-05T12:45:22.432Z,73
2023-04-05T12:46:28.629Z,72
2023-04-05T12:47:34.708Z,81
2023-04-05T12:48:40.868Z,75
2023-04-05T12:50:53.279Z,78.5
2023-04-05T12:51:58.503Z,76
2023-04-05T12:53:04.605Z,73.5
2023-04-05T12:54:10.714Z,81
2023-04-05T12:56:23.073Z,88.5
2023-04-05T12:57:29.139Z,83
2023-04-05T12:58:35.370Z,77.5
2023-04-05T12:59:41.435Z,75.5
2023-04-05T13:00:47.684Z,83.5
2023-04-05T13:01:53.841Z,81.5
2023-04-05T13:02:59.864Z,79
2023-04-05T13:04:06.080Z,76
2023-04-05T13:05:12.147Z,75.5
2023-04-05T13:06:17.334Z,79.5
2023-04-05T13:07:23.467Z,75.5
2023-04-05T13:08:29.630Z,78.5
2023-04-05T13:09:35.748Z,75.5
2023-04-05T13:10:41.881Z,86.5
2023-04-05T13:12:54.190Z,78
2023-04-05T13:14:00.320Z,76
2023-04-05T13:15:06.461Z,78
2023-04-05T13:17:18.748Z,79
2023-04-05T13:18:24.913Z,86.5
2023-04-05T13:19:31.033Z,82.5
2023-04-05T13:20:36.222Z,80
2023-04-05T13:21:42.345Z,79
2023-04-05T13:22:48.493Z,83
2023-04-05T13:23:54.645Z,79
2023-04-05T13:25:00.767Z,75.5
2023-04-05T13:26:06.968Z,76
2023-04-05T13:27:13.057Z,76.5
2023-04-05T13:29:25.334Z,74
2023-04-05T13:30:31.491Z,74
2023-04-05T13:31:37.698Z,83
2023-04-05T13:32:43.836Z,76
2023-04-05T13:33:49.915Z,78
2023-04-05T13:34:55.077Z,83
2023-04-05T13:36:01.238Z,80.5
2023-04-05T13:37:07.359Z,84.5
2023-04-05T13:38:13.502Z,78
2023-04-05T13:39:19.646Z,81.5
2023-04-05T13:40:24.814Z,77.5
2023-04-05T13:41:29.967Z,77
2023-04-05T13:42:36.121Z,77.5
2023-04-05T13:43:42.282Z,84
2023-04-05T13:45:54.563Z,85
2023-04-05T13:47:00.683Z,81.5
2023-04-05T13:48:06.836Z,78.5
2023-04-05T13:49:12.991Z,81.5
2023-04-05T13:51:25.276Z,81
2023-04-05T13:52:31.408Z,80.5
2023-04-05T13:53:37.552Z,79
2023-04-05T13:54:42.730Z,81
2023-04-05T13:55:47.885Z,79
2023-04-05T13:58:00.192Z,78
2023-04-05T13:59:06.312Z,78.5
2023-04-05T14:00:12.517Z,75.5
2023-04-05T14:02:25.071Z,77
2023-04-05T14:03:30.940Z,75.5
2023-04-05T14:04:37.052Z,78
2023-04-05T14:05:43.285Z,80.5
2023-04-05T14:06:49.311Z,78.5
2023-04-05T14:07:55.451Z,77.5
2023-04-05T14:09:01.605Z,77
2023-04-05T14:10:06.757Z,80.5
2023-04-05T14:11:12.886Z,81
2023-04-05T14:13:25.179Z,78
2023-04-05T14:14:31.449Z,75.5
2023-04-05T14:15:37.616Z,76.5
2023-04-05T14:16:43.752Z,75.5
2023-04-05T14:18:56.033Z,84
2023-04-05T14:20:02.171Z,84.5
2023-04-05T14:21:08.323Z,85.5
2023-04-05T14:22:14.459Z,82.5
2023-04-05T14:23:20.601Z,83
2023-04-05T14:24:25.771Z,85
2023-04-05T14:25:31.914Z,81.5
2023-04-05T14:26:38.057Z,81.5
2023-04-05T14:27:44.198Z,84.5
2023-04-05T14:28:50.353Z,79.5
2023-04-05T14:29:56.476Z,76
2023-04-05T14:31:02.624Z,80
2023-04-05T14:32:08.772Z,77
2023-04-05T14:33:14.917Z,77
2023-04-05T14:35:27.204Z,79.5
2023-04-05T14:36:33.341Z,76.5
2023-04-05T14:37:39.501Z,78
2023-04-05T14:38:44.654Z,78
2023-04-05T14:39:50.789Z,75.5
2023-04-05T14:40:56.927Z,76.5
2023-04-05T14:42:02.107Z,75.5
2023-04-05T14:43:07.257Z,76
2023-04-05T14:44:13.411Z,76.5
2023-04-05T14:45:19.558Z,76
2023-04-05T14:46:25.689Z,79.5
2023-04-05T14:47:31.835Z,75
2023-04-05T14:48:37.986Z,73.5
2023-04-05T14:49:44.114Z,72.5
2023-04-05T14:51:56.408Z,74
2023-04-05T14:53:02.560Z,78.5
2023-04-05T14:54:08.700Z,78.5
2023-04-05T14:55:14.839Z,79
2023-04-05T14:56:20.982Z,75.5
2023-04-05T14:57:26.141Z,75
2023-04-05T14:58:32.280Z,77
2023-04-05T14:59:38.423Z,76.5
2023-04-05T15:00:44.585Z,76
2023-04-05T15:01:50.710Z,76
2023-04-05T15:02:56.861Z,83
2023-04-05T15:04:03.000Z,79
2023-04-05T15:05:09.158Z,76
2023-04-05T15:06:14.314Z,74.5
2023-04-05T15:08:25.624Z,72
2023-04-05T15:09:31.758Z,73.5
2023-04-05T15:10:37.893Z,74
2023-04-05T15:11:44.146Z,74.5
2023-04-05T15:12:50.191Z,75.5
2023-04-05T15:13:56.476Z,76.5
2023-04-05T15:15:02.618Z,75
2023-04-05T15:16:08.767Z,78
2023-04-05T15:17:14.904Z,77.5
2023-04-05T15:18:21.080Z,75
2023-04-05T15:19:27.199Z,75
2023-04-05T15:20:33.324Z,74.5
2023-04-05T15:21:38.500Z,75.5
2023-04-05T15:22:44.633Z,75.5
2023-04-05T15:24:56.922Z,75.5
2023-04-05T15:26:03.067Z,79.5
2023-04-05T15:27:09.338Z,78
2023-04-05T15:28:15.346Z,76.5
2023-04-05T15:29:21.488Z,78
2023-04-05T15:30:27.637Z,79
2023-04-05T15:31:33.773Z,76
2023-04-05T15:32:39.921Z,79.5
2023-04-05T15:33:46.095Z,78.5
2023-04-05T15:34:52.205Z,76.5
2023-04-05T15:35:57.360Z,76.5
2023-04-05T15:37:03.504Z,76
2023-04-05T15:38:09.675Z,75.5
2023-04-05T15:39:15.797Z,75
2023-04-05T15:41:28.110Z,75
2023-04-05T15:42:34.213Z,76.5
2023-04-05T15:43:40.375Z,75.5
2023-04-05T15:44:46.512Z,75
2023-04-05T15:45:52.665Z,77
2023-04-05T15:46:58.795Z,76.5
2023-04-05T15:48:04.943Z,75
2023-04-05T15:49:11.082Z,75
2023-04-05T15:50:16.238Z,75.5
2023-04-05T15:51:22.394Z,76
2023-04-05T15:52:28.528Z,76.5
2023-04-05T15:53:34.663Z,76
2023-04-05T15:54:40.819Z,78
2023-04-05T15:55:46.955Z,79.5
2023-04-05T15:57:59.245Z,78
2023-04-05T15:59:05.429Z,76
2023-04-05T16:00:11.531Z,76
2023-04-05T16:01:17.735Z,77.5
2023-04-05T16:02:23.815Z,76
2023-04-05T16:03:29.958Z,77
2023-04-05T16:05:41.270Z,76
2023-04-05T16:07:53.553Z,76.5
2023-04-05T16:08:58.718Z,77
2023-04-05T16:10:03.879Z,76.5
2023-04-05T16:11:10.026Z,75.5
2023-04-05T16:12:16.168Z,76
2023-04-05T16:14:28.452Z,79
2023-04-05T16:15:34.592Z,77.5
2023-04-05T16:16:40.748Z,77
2023-04-05T16:17:46.885Z,78
2023-04-05T16:18:53.016Z,77.5
2023-04-05T16:19:59.166Z,77
2023-04-05T16:21:05.309Z,76.5
2023-04-05T16:22:11.455Z,76
2023-04-05T16:24:23.736Z,76
2023-04-05T16:25:28.927Z,76.5
2023-04-05T16:26:34.075Z,76.5
2023-04-05T16:27:40.228Z,77.5
2023-04-05T16:28:46.358Z,77.5
2023-04-05T16:30:58.647Z,76.5
2023-04-05T16:32:04.791Z,78
2023-04-05T16:33:09.956Z,79
2023-04-05T16:34:16.094Z,78.5
2023-04-05T16:35:22.233Z,78.5
2023-04-05T16:36:28.382Z,79.5
2023-04-05T16:37:34.525Z,77
2023-04-05T16:38:40.671Z,78
2023-04-05T16:39:46.814Z,78
2023-04-05T16:40:52.963Z,78.5
2023-04-05T16:41:59.107Z,77.5
2023-04-05T16:43:05.249Z,78
2023-04-05T16:44:11.383Z,79
2023-04-05T16:45:17.560Z,77.5
2023-04-05T16:47:29.820Z,77.5
2023-04-05T16:48:36.076Z,79.5
2023-04-05T16:49:42.240Z,79
2023-04-05T16:50:48.364Z,79
2023-04-05T16:51:54.515Z,78
2023-04-05T16:53:00.672Z,79
2023-04-05T16:54:05.831Z,78.5
2023-04-05T16:55:10.987Z,77.5
2023-04-05T16:56:17.126Z,78
2023-04-05T16:57:23.331Z,77.5
2023-04-05T16:58:29.417Z,77
2023-04-05T17:00:41.695Z,80
2023-04-05T17:01:47.836Z,80
2023-04-05T17:04:00.128Z,81
2023-04-05T17:06:12.404Z,78.5
2023-04-05T17:07:18.553Z,80
2023-04-05T17:08:24.691Z,80
2023-04-05T17:10:36.027Z,78.5
2023-04-05T17:11:41.182Z,81
2023-04-05T17:12:46.342Z,83
2023-04-05T17:13:52.499Z,83
2023-04-05T17:14:58.632Z,89
2023-04-05T17:16:04.773Z,90.5
2023-04-05T17:17:10.909Z,91.5
2023-04-05T17:18:17.058Z,87.5
2023-04-05T17:20:29.349Z,87.5
2023-04-05T17:21:35.485Z,88.5
2023-04-05T17:22:41.632Z,92.5
2023-04-05T17:23:47.783Z,96.5
2023-04-05T17:24:53.916Z,96.5
2023-04-05T17:26:00.055Z,96
2023-04-05T17:27:05.222Z,89.5
2023-04-05T17:28:11.359Z,95
2023-04-05T17:29:17.516Z,97.5
2023-04-05T17:30:23.638Z,99.5
2023-04-05T17:31:29.789Z,99.5
2023-04-05T17:32:35.925Z,99.5
2023-04-05T17:33:42.083Z,99.5
2023-04-05T17:34:48.292Z,99.5
2023-04-05T17:36:59.532Z,99.5
2023-04-05T17:38:04.697Z,99.5
2023-04-05T17:39:10.841Z,99.5
2023-04-05T17:40:17.013Z,99.5
2023-04-05T17:41:23.130Z,99.5
2023-04-05T17:42:29.261Z,99.5
2023-04-05T17:43:34.439Z,99.5